Main page
METAR-TAF:

METAR-TAF

Airports :

Illinois Valley Regional Airport

Peru / LaSalle, Illinois, United States

latitude: 41-21-07N, longitude: 089-09-11W, elevation: 653 ft

Current weather observation

The report was made 27 minutes ago, at 05:15 UTC
Wind 6 mph from the Southwest
Temperature 48°F
Humidity 49%
Pressure 30.13 in. Hg
Visibility: 10 miles
Clear sky

METAR: KVYS 220515Z AUTO 23005KT 10SM CLR 09/M01 A3013 RMK AO2 T00851012 TSNO

Time: 00:42 (05:42 UTC)


TAF: missing

Weather observations and forecasts of more than 4000 airports (METAR and TAF reports).

The available stations are represented by yellow and red dots on the map.

Hover mouse over dot to see the name of the station.

Then click to see weather observations and forecasts.

To change the map : click on the green buttons with a black cross to zoom in, on the green button with a dash to zoom out, or on the green arrows for adjacent maps.


METAR-TAF: